Time;durP1;ratioP1;P1;durP2;ratioP2;P2;SDS_P1;SDS_P2;PMS_P1;PMS_P2;Temp;Humidity;BMP_temperature;BMP_pressure;BME280_temperature;BME280_humidity;BME280_pressure;Samples;Min_cycle;Max_cycle;Signal;HPM_P1;HPM_P2
2022/09/21 00:00:48;;;;;;;2.13;1.38;;;;;;;16.82;45.77;102356.84;4977021;28;20046;-69
2022/09/21 00:03:14;;;;;;;5.60;1.30;;;;;;;16.81;46.64;102358.69;4959543;28;20050;-69
2022/09/21 00:05:40;;;;;;;3.40;1.60;;;;;;;16.80;46.13;102354.28;4976903;28;20477;-69
2022/09/21 00:08:06;;;;;;;3.88;1.60;;;;;;;16.78;45.81;102356.22;4975935;28;20031;-68
2022/09/21 00:10:32;;;;;;;5.63;1.80;;;;;;;16.78;45.31;102356.22;4975683;28;20029;-69
2022/09/21 00:12:58;;;;;;;3.70;1.90;;;;;;;16.77;46.37;102357.25;4959974;28;20121;-69
2022/09/21 00:15:24;;;;;;;1.65;1.25;;;;;;;16.72;46.33;102350.50;4959441;28;20489;-69
2022/09/21 00:17:52;;;;;;;3.88;1.85;;;;;;;16.73;45.97;102358.47;4975426;28;20027;-69
2022/09/21 00:20:18;;;;;;;2.10;1.60;;;;;;;16.67;45.58;102353.59;4959266;28;20493;-69
2022/09/21 00:22:45;;;;;;;4.10;1.60;;;;;;;16.68;46.14;102358.03;4959607;28;20065;-69
2022/09/21 00:25:11;;;;;;;5.18;1.40;;;;;;;16.66;45.29;102362.72;4959308;28;20400;-69
2022/09/21 00:27:37;;;;;;;2.65;1.50;;;;;;;16.63;46.31;102352.16;4959326;28;20110;-68
2022/09/21 00:30:05;;;;;;;2.25;1.63;;;;;;;16.61;45.29;102354.09;4959077;28;20030;-69
2022/09/21 00:32:32;;;;;;;3.47;1.60;;;;;;;16.61;46.74;102354.09;4959504;28;20042;-68
2022/09/21 00:34:59;;;;;;;1.70;1.45;;;;;;;16.57;46.49;102357.22;4959321;28;20081;-69
2022/09/21 00:37:25;;;;;;;2.75;0.98;;;;;;;16.54;46.39;102347.53;4959118;28;20396;-69
2022/09/21 00:39:50;;;;;;;1.95;1.30;;;;;;;16.52;46.00;102354.88;4975133;28;20109;-69
2022/09/21 00:42:28;;;;;;;2.33;1.60;;;;;;;16.50;46.52;102354.13;4975040;28;20523;-69
2022/09/21 00:44:54;;;;;;;1.08;1.08;;;;;;;16.45;45.05;102352.81;4975247;28;20054;-69
2022/09/21 00:47:32;;;;;;;1.80;1.50;;;;;;;16.41;45.45;102352.22;4959162;28;20392;-69
2022/09/21 00:49:58;;;;;;;2.25;1.25;;;;;;;16.42;46.44;102356.63;4973868;28;20030;-68
2022/09/21 00:52:26;;;;;;;2.75;1.38;;;;;;;16.39;45.88;102358.75;4958942;28;20121;-69
2022/09/21 00:55:28;;;;;;;1.10;1.10;;;;;;;16.29;45.47;102342.44;4974999;28;20023;-68
2022/09/21 00:57:57;;;;;;;2.15;1.50;;;;;;;16.29;45.57;102353.25;4974877;28;20400;-68
2022/09/21 01:00:23;;;;;;;3.45;2.20;;;;;;;16.28;46.54;102352.38;4975866;28;20027;-69
2022/09/21 01:02:48;;;;;;;2.22;1.15;;;;;;;16.27;46.81;102360.66;4974649;28;20461;-68
2022/09/21 01:05:14;;;;;;;3.30;1.70;;;;;;;16.23;46.28;102351.91;4958677;28;20035;-68
2022/09/21 01:07:43;;;;;;;1.50;1.38;;;;;;;16.24;45.38;102350.09;4974747;28;20484;-68
2022/09/21 01:10:12;;;;;;;2.53;1.80;;;;;;;16.20;46.38;102348.59;4974642;28;20041;-68
2022/09/21 01:12:50;;;;;;;5.95;1.40;;;;;;;16.19;45.61;102355.84;4974464;28;20041;-68
2022/09/21 01:15:21;;;;;;;3.63;1.70;;;;;;;16.18;46.49;102356.00;4974519;28;20428;-68
2022/09/21 01:17:52;;;;;;;5.07;1.85;;;;;;;16.17;45.53;102354.28;4975695;28;20038;-68
2022/09/21 01:20:35;;;;;;;2.95;1.73;;;;;;;16.14;45.42;102354.53;4975517;28;20109;-68
2022/09/21 01:23:28;;;;;;;1.83;1.55;;;;;;;16.11;46.00;102352.06;4974334;28;20497;-68
2022/09/21 01:26:02;;;;;;;2.67;1.80;;;;;;;16.12;45.35;102353.81;4975435;28;20027;-68
2022/09/21 01:28:59;;;;;;;2.55;1.60;;;;;;;16.11;45.23;102352.94;4975492;28;20026;-68
2022/09/21 01:31:29;;;;;;;4.63;1.88;;;;;;;16.09;45.45;102356.75;4975338;28;20027;-68
2022/09/21 01:33:57;;;;;;;2.00;1.38;;;;;;;16.07;46.47;102350.63;4958208;28;20023;-68
2022/09/21 01:36:25;;;;;;;1.58;1.48;;;;;;;16.08;46.27;102357.75;4974086;28;20066;-68
2022/09/21 01:38:57;;;;;;;3.70;2.17;;;;;;;16.03;46.59;102357.25;4974052;28;20026;-68
2022/09/21 01:41:24;;;;;;;3.13;2.10;;;;;;;16.03;45.46;102362.66;4974090;28;20030;-68
2022/09/21 01:43:56;;;;;;;2.08;1.40;;;;;;;16.01;45.38;102359.25;4957962;28;20035;-68
2022/09/21 01:46:27;;;;;;;2.25;1.35;;;;;;;15.98;46.22;102354.09;4974128;28;20492;-68
2022/09/21 01:48:55;;;;;;;4.97;1.83;;;;;;;15.98;47.05;102354.09;4974200;28;20448;-68
2022/09/21 01:51:24;;;;;;;2.40;1.63;;;;;;;15.97;45.66;102352.38;4973898;28;20042;-68
2022/09/21 01:53:56;;;;;;;2.55;1.85;;;;;;;15.96;45.46;102354.22;4973882;28;20030;-68
2022/09/21 01:56:43;;;;;;;2.05;1.85;;;;;;;15.96;46.82;102356.06;4973962;28;20401;-68
2022/09/21 01:59:14;;;;;;;3.40;1.98;;;;;;;15.93;45.68;102350.91;4973801;28;20113;-68
2022/09/21 02:01:48;;;;;;;3.00;1.52;;;;;;;15.89;46.95;102346.72;4973388;28;20035;-68
2022/09/21 02:04:14;;;;;;;3.38;2.00;;;;;;;15.90;46.54;102351.16;4973666;28;20518;-68
2022/09/21 02:06:44;;;;;;;3.20;1.85;;;;;;;15.87;45.64;102352.28;4973587;28;20026;-68
2022/09/21 02:09:10;;;;;;;3.10;2.25;;;;;;;15.86;46.88;102355.09;4973610;28;20374;-68
2022/09/21 02:11:42;;;;;;;2.78;1.95;;;;;;;15.84;45.39;102351.66;4974928;28;20026;-68
2022/09/21 02:14:10;;;;;;;2.00;1.65;;;;;;;15.84;46.58;102360.63;4973833;28;20527;-68
2022/09/21 02:16:39;;;;;;;2.65;1.55;;;;;;;15.82;47.03;102348.22;4957374;28;20058;-68
2022/09/21 02:19:23;;;;;;;4.97;1.50;;;;;;;15.81;45.86;102357.31;4973497;28;20019;-68
2022/09/21 02:22:02;;;;;;;8.05;2.10;;;;;;;15.74;46.26;102356.97;4957313;28;20031;-68
2022/09/21 02:24:42;;;;;;;6.80;2.17;;;;;;;15.72;45.71;102354.38;4974685;28;20050;-68
2022/09/21 02:27:26;;;;;;;10.82;2.20;;;;;;;15.71;45.50;102360.78;4973494;28;20093;-68
2022/09/21 02:30:00;;;;;;;3.90;2.03;;;;;;;15.66;45.96;102360.28;4973658;28;20438;-68
2022/09/21 02:32:41;;;;;;;4.40;2.38;;;;;;;15.64;46.05;102364.94;4973311;28;20026;-68
2022/09/21 02:35:29;;;;;;;6.97;1.85;;;;;;;15.62;45.69;102364.22;4973427;28;20069;-68
2022/09/21 02:38:25;;;;;;;2.25;1.95;;;;;;;15.60;46.05;102374.31;4973526;28;20047;-68
2022/09/21 02:41:12;;;;;;;11.60;2.05;;;;;;;15.60;47.00;102368.91;4974475;28;20035;-68
2022/09/21 02:43:44;;;;;;;5.63;2.28;;;;;;;15.59;46.33;102367.16;4974573;28;20469;-68
2022/09/21 02:46:14;;;;;;;13.55;2.35;;;;;;;15.58;46.51;102373.53;4974439;28;20033;-68
2022/09/21 02:48:46;;;;;;;9.10;2.33;;;;;;;15.59;47.15;102375.28;4973334;28;20050;-68
2022/09/21 02:51:26;;;;;;;8.15;2.38;;;;;;;15.57;46.19;102369.16;4974600;28;20098;-68
2022/09/21 02:53:52;;;;;;;14.60;2.67;;;;;;;15.59;45.52;102369.88;4973409;28;20395;-68
2022/09/21 02:56:18;;;;;;;3.53;2.30;;;;;;;15.57;46.04;102366.44;4973180;28;20031;-67
2022/09/21 02:58:53;;;;;;;8.75;2.60;;;;;;;15.58;47.04;102368.16;4973345;28;20031;-69
2022/09/21 03:01:19;;;;;;;7.05;2.50;;;;;;;15.57;46.44;102371.84;4973090;28;20061;-68
2022/09/21 03:03:45;;;;;;;5.47;2.65;;;;;;;15.53;46.42;102362.25;4973141;28;20126;-68
2022/09/21 03:06:10;;;;;;;6.85;1.98;;;;;;;15.53;45.77;102364.97;4974353;28;20062;-68
2022/09/21 03:08:36;;;;;;;3.78;2.47;;;;;;;15.48;46.29;102361.78;4974212;28;20081;-68
2022/09/21 03:11:01;;;;;;;2.90;2.28;;;;;;;15.48;46.60;102361.78;4973130;28;20019;-68
2022/09/21 03:13:27;;;;;;;6.40;2.47;;;;;;;15.48;45.69;102360.91;4976265;28;20392;-68
2022/09/21 03:16:03;;;;;;;4.35;2.63;;;;;;;15.47;46.51;102365.44;4977916;28;20085;-69
2022/09/21 03:18:29;;;;;;;6.10;2.60;;;;;;;15.46;46.30;102368.25;4976725;28;20038;-68
2022/09/21 03:20:55;;;;;;;4.50;2.30;;;;;;;15.42;46.25;102356.84;4976590;28;20027;-68
2022/09/21 03:23:20;;;;;;;5.20;2.90;;;;;;;15.43;46.19;102361.25;4976495;28;20508;-68
2022/09/21 03:25:46;;;;;;;5.20;2.28;;;;;;;15.44;46.14;102368.34;4977786;28;20030;-69
2022/09/21 03:28:13;;;;;;;3.53;2.15;;;;;;;15.42;47.11;102370.34;4977520;28;20444;-68
2022/09/21 03:30:39;;;;;;;5.95;2.20;;;;;;;15.39;46.93;102357.06;4977616;28;20065;-68
2022/09/21 03:33:04;;;;;;;3.83;2.33;;;;;;;15.37;47.21;102359.03;4976357;28;20034;-68
2022/09/21 03:35:32;;;;;;;3.17;2.28;;;;;;;15.37;46.73;102364.44;4977603;28;20031;-68
2022/09/21 03:37:58;;;;;;;3.17;2.40;;;;;;;15.34;46.52;102362.00;4976236;28;20485;-68
2022/09/21 03:40:25;;;;;;;4.13;2.50;;;;;;;15.30;46.27;102357.81;4977462;28;20034;-69
2022/09/21 03:42:50;;;;;;;2.22;1.90;;;;;;;15.33;47.09;102362.09;4976195;28;20503;-68
2022/09/21 03:45:16;;;;;;;3.08;2.17;;;;;;;15.33;45.95;102367.50;4976383;28;20030;-68
2022/09/21 03:47:41;;;;;;;3.55;2.53;;;;;;;15.32;46.55;102363.97;4976104;28;20042;-68
2022/09/21 03:50:07;;;;;;;3.00;2.20;;;;;;;15.30;46.13;102363.19;4976124;28;20018;-68
2022/09/21 03:52:34;;;;;;;8.52;2.55;;;;;;;15.28;46.43;102364.31;4960128;28;20045;-68
2022/09/21 03:55:00;;;;;;;4.65;2.47;;;;;;;15.30;47.48;102374.00;4977239;28;20022;-69
2022/09/21 03:57:26;;;;;;;3.38;2.10;;;;;;;15.30;46.50;102379.41;4959848;28;20031;-68
2022/09/21 03:59:53;;;;;;;4.38;2.65;;;;;;;15.28;46.87;102373.28;4975851;28;20026;-68
2022/09/21 04:02:18;;;;;;;3.28;1.80;;;;;;;15.24;45.93;102371.81;4975668;28;20098;-69
2022/09/21 04:04:44;;;;;;;6.90;2.95;;;;;;;15.27;46.61;102381.50;4975828;28;20030;-68
2022/09/21 04:07:09;;;;;;;3.72;2.20;;;;;;;15.23;47.34;102375.47;4976961;28;20047;-68
2022/09/21 04:09:34;;;;;;;5.20;2.05;;;;;;;15.22;47.17;102384.53;4975772;28;20065;-68
2022/09/21 04:12:00;;;;;;;3.03;1.95;;;;;;;15.19;46.43;102378.56;4976816;28;20058;-68
2022/09/21 04:14:25;;;;;;;2.25;1.85;;;;;;;15.18;46.03;102380.38;4976780;28;20110;-68
2022/09/21 04:16:51;;;;;;;5.53;2.42;;;;;;;15.17;47.22;102386.75;4975660;28;20101;-68
2022/09/21 04:19:17;;;;;;;3.40;1.77;;;;;;;15.15;47.36;102383.31;4975634;28;20034;-68
2022/09/21 04:21:43;;;;;;;8.80;2.60;;;;;;;15.11;46.07;102379.13;4976630;28;20420;-68
2022/09/21 04:24:08;;;;;;;3.95;2.30;;;;;;;15.13;45.96;102388.00;4975414;28;20034;-68
2022/09/21 04:26:35;;;;;;;3.92;2.40;;;;;;;15.13;46.01;102383.44;4975446;28;20034;-68
2022/09/21 04:29:01;;;;;;;3.38;2.60;;;;;;;15.12;47.17;102383.56;4959525;28;20084;-68
2022/09/21 04:31:27;;;;;;;4.15;2.47;;;;;;;15.10;46.29;102382.84;4975394;28;20025;-68
2022/09/21 04:33:54;;;;;;;4.43;2.30;;;;;;;15.06;46.49;102375.94;4959177;28;20036;-68
2022/09/21 04:36:21;;;;;;;2.30;1.65;;;;;;;15.09;46.06;102381.97;4976408;28;20022;-68
2022/09/21 04:38:46;;;;;;;4.93;2.35;;;;;;;15.07;46.48;102380.38;4975399;28;20123;-68
2022/09/21 04:41:12;;;;;;;5.88;2.50;;;;;;;15.05;46.00;102385.88;4975045;28;20106;-68
2022/09/21 04:43:42;;;;;;;5.22;2.28;;;;;;;15.07;47.32;102389.31;4975081;28;20023;-68
2022/09/21 04:46:09;;;;;;;3.25;2.45;;;;;;;15.08;45.79;102396.44;4975140;28;20027;-68
2022/09/21 04:48:34;;;;;;;4.85;2.40;;;;;;;15.08;45.82;102390.16;4975061;28;20023;-69
2022/09/21 04:51:01;;;;;;;3.40;2.47;;;;;;;15.06;47.65;102386.75;4974825;28;20033;-68
2022/09/21 04:53:28;;;;;;;3.58;2.25;;;;;;;15.05;46.75;102379.59;4974971;28;20031;-68
2022/09/21 04:55:54;;;;;;;4.55;2.28;;;;;;;15.05;47.24;102385.88;4974816;28;20054;-69
2022/09/21 04:58:20;;;;;;;3.30;1.92;;;;;;;15.06;45.84;102392.13;4976003;28;20054;-69
2022/09/21 05:00:51;;;;;;;3.67;2.30;;;;;;;15.07;46.07;102388.47;4975887;28;20429;-69
2022/09/21 05:03:17;;;;;;;3.78;2.10;;;;;;;15.02;47.22;102396.03;4958244;28;20050;-69
2022/09/21 05:05:50;;;;;;;4.47;2.22;;;;;;;15.00;46.40;102392.59;4975764;28;20464;-69
2022/09/21 05:08:16;;;;;;;5.93;2.33;;;;;;;14.97;46.98;102395.53;4974475;28;20117;-69
2022/09/21 05:10:42;;;;;;;3.10;2.30;;;;;;;14.92;47.16;102395.03;4975660;28;20559;-69
2022/09/21 05:13:08;;;;;;;3.55;2.13;;;;;;;14.91;47.21;102398.72;4974453;28;20026;-68
2022/09/21 05:15:33;;;;;;;4.47;2.03;;;;;;;14.89;47.22;102395.28;4974908;28;20030;-69
2022/09/21 05:17:58;;;;;;;2.90;2.08;;;;;;;14.88;46.11;102398.97;4974568;28;20085;-69
2022/09/21 05:20:24;;;;;;;6.55;2.25;;;;;;;14.85;46.83;102400.03;4975629;28;20089;-69
2022/09/21 05:22:49;;;;;;;4.20;2.38;;;;;;;14.86;46.78;102400.91;4974191;28;20100;-69
2022/09/21 05:25:14;;;;;;;3.05;2.50;;;;;;;14.84;47.27;102401.03;4974320;28;20396;-68
2022/09/21 05:27:40;;;;;;;5.60;2.42;;;;;;;14.85;45.65;102404.59;4974376;28;20565;-69
2022/09/21 05:30:06;;;;;;;4.53;2.78;;;;;;;14.87;46.81;102402.66;4974082;28;20040;-68
2022/09/21 05:32:35;;;;;;;7.03;3.97;;;;;;;14.90;46.36;102410.50;4958053;28;20563;-69
2022/09/21 05:35:24;;;;;;;5.13;3.15;;;;;;;14.90;47.14;102413.19;4973728;28;20054;-68
2022/09/21 05:38:11;;;;;;;4.38;3.05;;;;;;;14.95;46.22;102421.78;4969707;28;20089;-69
2022/09/21 05:40:37;;;;;;;6.68;2.97;;;;;;;14.93;47.42;102413.84;4975165;28;20183;-69
2022/09/21 05:43:02;;;;;;;7.57;4.10;;;;;;;14.98;47.48;102427.81;4973977;28;20097;-68
2022/09/21 05:45:28;;;;;;;5.88;3.33;;;;;;;14.99;46.79;102424.13;4975593;28;20101;-69
2022/09/21 05:48:05;;;;;;;7.57;3.35;;;;;;;15.06;47.29;102429.91;4974080;28;20459;-69
2022/09/21 05:50:34;;;;;;;8.65;3.85;;;;;;;15.10;47.62;102420.63;4973936;28;20019;-68
2022/09/21 05:53:37;;;;;;;10.68;4.05;;;;;;;15.14;46.87;102417.56;4973977;28;20038;-69
2022/09/21 05:56:20;;;;;;;6.13;3.65;;;;;;;15.17;47.01;102419.16;4934415;29;20043;-69
2022/09/21 05:59:06;;;;;;;11.70;3.92;;;;;;;15.26;47.78;102425.66;4918894;29;20588;-69
2022/09/21 06:01:32;;;;;;;26.50;4.30;;;;;;;15.30;47.55;102427.16;4934381;29;20096;-68
2022/09/21 06:03:58;;;;;;;27.65;4.78;;;;;;;15.30;46.38;102432.56;4918679;29;20133;-69
2022/09/21 06:06:23;;;;;;;14.52;4.03;;;;;;;15.37;46.60;102440.06;4918444;29;20035;-69
2022/09/21 06:08:48;;;;;;;50.65;5.10;;;;;;;15.40;46.23;102434.41;4934403;29;20042;-68
2022/09/21 06:11:14;;;;;;;39.58;5.03;;;;;;;15.42;47.35;102429.75;4934237;29;20049;-69
2022/09/21 06:13:42;;;;;;;21.35;5.10;;;;;;;15.49;46.94;102443.66;4918471;29;20489;-69
2022/09/21 06:16:08;;;;;;;33.83;5.15;;;;;;;15.53;48.12;102437.03;4918869;29;20143;-68
2022/09/21 06:18:38;;;;;;;28.30;4.72;;;;;;;15.62;47.70;102439.88;4902653;29;20039;-69
2022/09/21 06:21:03;;;;;;;32.67;4.85;;;;;;;15.70;47.07;102441.94;4918569;29;20040;-69
2022/09/21 06:23:29;;;;;;;29.13;4.75;;;;;;;15.80;47.10;102442.91;4918411;29;20036;-69
2022/09/21 06:25:54;;;;;;;28.08;4.97;;;;;;;15.88;47.39;102440.47;4923756;28;20434;-69
2022/09/21 06:28:20;;;;;;;36.90;5.13;;;;;;;15.92;47.69;102435.66;4973574;28;20038;-69
2022/09/21 06:30:50;;;;;;;31.17;4.70;;;;;;;15.99;47.14;102437.75;4957334;28;20062;-69
2022/09/21 06:33:19;;;;;;;11.27;4.22;;;;;;;16.07;47.71;102434.44;4973398;28;20129;-69
2022/09/21 06:35:50;;;;;;;15.98;4.20;;;;;;;16.14;47.81;102441.91;4974616;28;20058;-69
2022/09/21 06:38:16;;;;;;;30.92;4.75;;;;;;;16.26;46.55;102440.03;4973400;28;20026;-69
2022/09/21 06:40:41;;;;;;;13.52;4.38;;;;;;;16.35;46.54;102438.44;4974658;28;20046;-69
2022/09/21 06:43:07;;;;;;;18.58;4.10;;;;;;;16.48;47.63;102441.81;4957388;28;20495;-68
2022/09/21 06:45:32;;;;;;;15.20;4.30;;;;;;;16.58;47.99;102440.13;4975112;28;20109;-69
2022/09/21 06:47:58;;;;;;;11.43;4.72;;;;;;;16.70;47.72;102444.47;4975824;28;20051;-69
2022/09/21 06:50:24;;;;;;;13.75;4.07;;;;;;;16.81;47.36;102436.31;4976975;28;20441;-69
2022/09/21 06:52:49;;;;;;;15.20;4.05;;;;;;;16.95;47.14;102440.53;4961139;28;20031;-69
2022/09/21 06:55:14;;;;;;;7.18;4.03;;;;;;;16.97;47.23;102431.31;4978183;28;20390;-69
2022/09/21 06:57:40;;;;;;;11.43;4.45;;;;;;;17.16;46.47;102444.13;4977098;28;20050;-69
2022/09/21 07:00:08;;;;;;;11.32;4.60;;;;;;;17.29;46.30;102436.66;4976908;28;20030;-69
2022/09/21 07:02:34;;;;;;;7.65;3.97;;;;;;;17.38;47.06;102436.72;4960747;28;20401;-69
2022/09/21 07:04:59;;;;;;;20.73;4.70;;;;;;;17.50;47.42;102439.34;4977005;28;20038;-69
2022/09/21 07:07:25;;;;;;;7.60;4.45;;;;;;;17.50;47.47;102434.81;4976836;28;20109;-69
2022/09/21 07:09:50;;;;;;;7.00;4.07;;;;;;;17.54;47.47;102444.38;4960760;28;20026;-69
2022/09/21 07:12:16;;;;;;;9.98;4.15;;;;;;;17.51;47.16;102436.50;4976787;28;20027;-70
2022/09/21 07:14:44;;;;;;;9.77;4.80;;;;;;;17.49;47.60;102443.91;4960566;28;20030;-69
2022/09/21 07:17:09;;;;;;;6.53;4.45;;;;;;;17.51;47.54;102444.63;4976783;28;20551;-69
2022/09/21 07:19:35;;;;;;;10.63;4.45;;;;;;;17.62;46.53;102444.56;4976708;28;20039;-69
2022/09/21 07:22:00;;;;;;;9.38;4.38;;;;;;;17.84;47.46;102433.53;4977924;28;20133;-69
2022/09/21 07:24:25;;;;;;;9.10;4.80;;;;;;;18.00;46.42;102439.31;4976347;28;20038;-69
2022/09/21 07:26:51;;;;;;;8.60;4.38;;;;;;;18.17;46.11;102437.81;4977641;28;20034;-69
2022/09/21 07:29:17;;;;;;;7.50;4.80;;;;;;;18.29;47.17;102436.66;4977548;28;20033;-69
2022/09/21 07:31:43;;;;;;;8.70;4.68;;;;;;;18.41;47.05;102435.56;4976326;28;20516;-69
2022/09/21 07:34:10;;;;;;;7.40;4.32;;;;;;;18.46;46.75;102438.69;4976391;28;20034;-69
2022/09/21 07:36:35;;;;;;;10.15;4.95;;;;;;;18.62;46.14;102446.31;4976317;28;20492;-69
2022/09/21 07:39:02;;;;;;;7.65;4.55;;;;;;;18.75;46.53;102430.63;4976272;28;20060;-69
2022/09/21 07:41:27;;;;;;;8.13;4.90;;;;;;;18.93;46.60;102439.75;4977446;28;20031;-69
2022/09/21 07:43:53;;;;;;;12.40;4.63;;;;;;;19.21;45.93;102437.16;4976293;28;20035;-69
2022/09/21 07:46:19;;;;;;;11.27;5.80;;;;;;;19.41;45.81;102444.28;4976110;28;20031;-69
2022/09/21 07:48:45;;;;;;;6.97;4.78;;;;;;;19.74;45.57;102435.56;4976103;28;20031;-69
2022/09/21 07:51:13;;;;;;;9.98;5.18;;;;;;;20.03;45.16;102433.59;4976058;28;20035;-70
2022/09/21 07:53:40;;;;;;;13.82;5.88;;;;;;;20.35;45.04;102433.16;4976063;28;20084;-69
2022/09/21 07:56:08;;;;;;;9.57;5.97;;;;;;;20.60;44.99;102424.19;4959669;28;20026;-69
2022/09/21 08:01:19;;;;;;;18.98;8.32;;;;;;;21.21;44.11;102421.53;4976090;28;20046;-69
2022/09/21 08:03:47;;;;;;;13.93;7.30;;;;;;;21.51;44.16;102436.56;4976900;28;20134;-69
2022/09/21 08:06:13;;;;;;;15.40;8.43;;;;;;;21.78;44.11;102427.31;4959593;28;20034;-69
2022/09/21 08:08:39;;;;;;;18.23;7.80;;;;;;;22.02;44.00;102430.19;4975699;28;20054;-69
2022/09/21 08:11:05;;;;;;;14.90;7.80;;;;;;;22.32;43.69;102428.75;4975924;28;20480;-70
2022/09/21 08:13:31;;;;;;;16.38;8.95;;;;;;;22.58;43.91;102419.41;4976847;28;20081;-69
2022/09/21 08:16:00;;;;;;;13.10;7.03;;;;;;;22.89;43.06;102429.72;4975713;28;20435;-69
2022/09/21 08:18:26;;;;;;;13.23;8.55;;;;;;;23.13;43.98;102435.19;4977090;28;20030;-70
2022/09/21 08:20:58;;;;;;;12.55;7.93;;;;;;;23.41;43.36;102432.97;4959243;28;20026;-70
2022/09/21 08:23:25;;;;;;;11.80;7.05;;;;;;;23.66;43.16;102435.47;4975603;28;20030;-69
2022/09/21 08:25:50;;;;;;;16.10;6.78;;;;;;;23.92;43.34;102434.34;4959185;28;20019;-70
2022/09/21 08:28:17;;;;;;;10.70;6.95;;;;;;;24.15;42.76;102432.56;4959372;28;20053;-70
2022/09/21 08:30:42;;;;;;;8.45;6.38;;;;;;;24.34;42.20;102427.47;4976339;28;20117;-70
2022/09/21 08:33:08;;;;;;;9.65;6.43;;;;;;;24.56;42.25;102438.66;4943271;28;20488;-69
2022/09/21 08:35:34;;;;;;;12.60;5.80;;;;;;;24.76;41.76;102435.25;4959120;28;20114;-70
2022/09/21 08:37:59;;;;;;;12.70;6.10;;;;;;;24.98;41.71;102435.47;4975122;28;20388;-70
2022/09/21 08:40:25;;;;;;;9.80;5.68;;;;;;;25.15;42.00;102429.66;4974902;28;20027;-71
2022/09/21 08:43:18;;;;;;;10.30;5.57;;;;;;;25.39;41.66;102425.81;4975116;28;20488;-71
2022/09/21 08:45:45;;;;;;;12.35;5.97;;;;;;;25.63;41.16;102428.31;4968941;28;20050;-70
2022/09/21 08:48:21;;;;;;;13.63;5.65;;;;;;;25.84;40.97;102422.94;4974830;28;20031;-70
2022/09/21 08:50:51;;;;;;;10.80;5.80;;;;;;;26.02;40.68;102412.38;4974909;28;20035;-71
2022/09/21 08:53:40;;;;;;;11.35;6.05;;;;;;;26.26;40.22;102413.13;4974740;28;20477;-70
2022/09/21 08:56:09;;;;;;;21.13;6.03;;;;;;;26.39;40.39;102414.13;4974616;28;20033;-69
2022/09/21 08:58:36;;;;;;;12.68;6.30;;;;;;;26.59;39.68;102426.22;4974541;28;20023;-70
2022/09/21 09:01:22;;;;;;;10.05;5.40;;;;;;;26.80;39.94;102422.63;4974392;28;20116;-70
2022/09/21 09:04:03;;;;;;;8.23;5.47;;;;;;;26.97;40.04;102421.31;4975477;28;20070;-71
2022/09/21 09:06:34;;;;;;;10.30;5.90;;;;;;;27.14;38.94;102422.72;4975393;28;20394;-71
2022/09/21 09:09:07;;;;;;;11.70;5.90;;;;;;;27.29;38.63;102430.91;4973486;28;20034;-70
2022/09/21 09:11:42;;;;;;;;;;;;;;;27.44;39.22;102430.84;4973409;28;20501;-70
2022/09/21 09:14:13;;;;;;;9.77;5.00;;;;;;;27.56;38.59;102423.69;4973945;28;19910;-70
2022/09/21 09:16:57;;;;;;;12.10;4.68;;;;;;;27.69;38.57;102432.06;4973980;28;20023;-70
2022/09/21 09:19:36;;;;;;;14.52;5.50;;;;;;;27.85;37.85;102428.13;4974717;28;20438;-70
2022/09/21 09:22:03;;;;;;;8.98;5.35;;;;;;;27.97;38.41;102427.34;4975201;28;20035;-71
2022/09/21 09:24:36;;;;;;;10.77;5.75;;;;;;;28.12;38.65;102425.31;4973966;28;20035;-71
2022/09/21 09:27:08;;;;;;;8.98;4.82;;;;;;;28.23;37.30;102421.97;4973999;28;20029;-71
2022/09/21 09:29:48;;;;;;;7.22;4.18;;;;;;;28.47;37.91;102420.56;4973925;28;20058;-72
2022/09/21 09:32:15;;;;;;;10.23;4.95;;;;;;;28.82;37.52;102415.75;4973917;28;20444;-71
2022/09/21 09:35:11;;;;;;;7.20;4.32;;;;;;;29.70;36.77;102425.50;4973902;28;20031;-73
2022/09/21 09:37:39;;;;;;;7.38;3.45;;;;;;;31.56;33.81;102423.13;4973964;28;20126;-72
2022/09/21 09:40:06;;;;;;;6.38;3.25;;;;;;;33.15;31.20;102418.00;4973706;28;20049;-71
2022/09/21 09:42:59;;;;;;;4.88;3.33;;;;;;;32.40;33.04;102420.41;4974923;28;20444;-72
2022/09/21 09:45:49;;;;;;;4.55;3.45;;;;;;;32.03;33.69;102418.75;4973875;28;20031;-71
2022/09/21 09:48:33;;;;;;;9.88;3.90;;;;;;;31.90;33.73;102424.44;4957475;28;20031;-71
2022/09/21 09:50:59;;;;;;;4.50;3.47;;;;;;;32.02;33.21;102428.19;4974859;28;20065;-72
2022/09/21 09:53:25;;;;;;;11.10;3.72;;;;;;;32.21;33.19;102430.69;4973638;28;20026;-72
2022/09/21 09:55:53;;;;;;;5.57;2.95;;;;;;;32.43;32.49;102425.50;4957662;28;20029;-72
2022/09/21 09:58:31;;;;;;;5.50;3.40;;;;;;;32.60;32.39;102436.81;4973557;28;20489;-72
2022/09/21 10:00:56;;;;;;;7.38;3.40;;;;;;;32.71;32.63;102422.97;4974595;28;20448;-73
2022/09/21 10:03:24;;;;;;;7.72;2.45;;;;;;;32.95;31.97;102417.44;4974557;28;20054;-72
2022/09/21 10:05:50;;;;;;;9.70;3.78;;;;;;;33.15;31.30;102412.44;4973527;28;20023;-72
2022/09/21 10:08:38;;;;;;;6.78;3.65;;;;;;;33.45;31.10;102412.34;4973365;28;20122;-72
2022/09/21 10:11:04;;;;;;;6.75;3.80;;;;;;;33.69;30.50;102414.88;4974682;28;20114;-72
2022/09/21 10:13:34;;;;;;;7.75;2.90;;;;;;;33.92;30.90;102411.22;4973867;28;20022;-72
2022/09/21 10:16:03;;;;;;;5.93;2.97;;;;;;;34.12;30.67;102408.00;4957234;28;20093;-73
2022/09/21 10:18:44;;;;;;;5.25;3.10;;;;;;;34.37;29.90;102416.88;4973525;28;20042;-73
2022/09/21 10:21:33;;;;;;;5.03;3.28;;;;;;;34.67;29.63;102411.94;4974410;28;20047;-72
2022/09/21 10:24:02;;;;;;;5.80;3.38;;;;;;;34.79;29.43;102407.13;4965805;28;20403;-72
2022/09/21 10:26:33;;;;;;;5.53;3.60;;;;;;;35.03;29.71;102405.88;4957378;28;20023;-72
2022/09/21 10:29:01;;;;;;;6.25;4.10;;;;;;;35.17;29.55;102399.97;4973405;28;20134;-74
2022/09/21 10:31:28;;;;;;;5.03;4.05;;;;;;;35.26;29.50;102393.69;4973193;28;20101;-72
2022/09/21 10:34:04;;;;;;;10.50;3.90;;;;;;;35.33;29.37;102393.53;4957162;28;20117;-73
2022/09/21 10:36:32;;;;;;;9.43;3.63;;;;;;;35.42;28.55;102397.59;4973354;28;20031;-72
2022/09/21 10:39:17;;;;;;;11.07;3.05;;;;;;;35.49;28.88;102392.66;4957018;28;20043;-72
2022/09/21 10:41:51;;;;;;;7.25;3.50;;;;;;;35.58;28.32;102385.56;4973057;28;20029;-71
2022/09/21 10:44:18;;;;;;;9.77;3.20;;;;;;;34.63;29.49;102387.59;4973046;28;20124;-72
2022/09/21 10:46:44;;;;;;;7.15;3.50;;;;;;;34.35;29.26;102392.06;4973185;28;20043;-73
2022/09/21 10:49:21;;;;;;;7.90;3.83;;;;;;;33.25;29.63;102394.06;4974210;28;20555;-71
2022/09/21 10:51:48;;;;;;;8.48;3.75;;;;;;;33.36;29.02;102392.41;4972967;28;20106;-72
2022/09/21 10:54:21;;;;;;;4.82;2.95;;;;;;;33.86;28.88;102399.13;4972974;28;20031;-71
2022/09/21 10:56:55;;;;;;;6.85;2.60;;;;;;;34.22;28.04;102386.81;4972990;28;20031;-71
2022/09/21 10:59:22;;;;;;;5.78;2.47;;;;;;;33.24;29.73;102388.78;4956779;28;20027;-72
2022/09/21 11:01:50;;;;;;;7.35;2.33;;;;;;;32.20;29.82;102403.19;4973836;28;20046;-71
2022/09/21 11:04:37;;;;;;;7.15;2.65;;;;;;;32.37;29.18;102404.22;4974290;28;20051;-72
2022/09/21 11:07:16;;;;;;;8.25;2.97;;;;;;;33.06;28.92;102399.97;4956884;28;20439;-72
2022/09/21 11:09:57;;;;;;;7.05;2.58;;;;;;;32.12;29.33;102400.72;4972829;28;20027;-71
2022/09/21 11:13:01;;;;;;;8.70;2.53;;;;;;;32.03;29.66;102404.91;4972587;28;20038;-74
2022/09/21 11:15:42;;;;;;;3.00;1.70;;;;;;;31.71;29.70;102398.66;4950486;28;20069;-72
2022/09/21 11:18:07;;;;;;;2.55;1.83;;;;;;;32.51;28.34;102396.53;4972729;28;20026;-71
2022/09/21 11:20:40;;;;;;;5.20;2.10;;;;;;;33.14;27.67;102388.53;4973892;28;20035;-72
2022/09/21 11:23:35;;;;;;;2.63;1.92;;;;;;;32.59;29.18;102391.53;4972678;28;20041;-71
2022/09/21 11:26:33;;;;;;;5.45;2.08;;;;;;;31.51;29.48;102387.81;4956587;28;20081;-71
2022/09/21 11:29:05;;;;;;;5.28;1.42;;;;;;;30.87;30.22;102384.50;4967439;28;20046;-71
2022/09/21 11:32:01;;;;;;;8.57;1.95;;;;;;;30.33;30.17;102388.69;4972707;28;20026;-72
2022/09/21 11:34:39;;;;;;;7.53;2.30;;;;;;;31.01;29.40;102391.66;4958334;28;20043;-72
2022/09/21 11:37:16;;;;;;;6.95;1.83;;;;;;;31.68;28.97;102388.03;4975962;28;20033;-72
2022/09/21 11:39:53;;;;;;;8.52;1.83;;;;;;;31.68;28.88;102382.50;4975994;28;20118;-71
2022/09/21 11:42:26;;;;;;;5.22;1.63;;;;;;;31.40;28.94;102384.91;4977220;28;20026;-72